Besiktas Bosphorus — TCOG3 — position and weather

sailwx.info

Track history (hours):
 
Tides and Currents Weather Stations Pressure Air Temp Water Temp Dewpoint Dewpoint Depression Visibility Wind Speed Wind Dir Waves Ship Positions

Besiktas Bosphorus

Last reported at 2016-May-29 04:33 UTC. Time now 2016-May-29 05:52 UTC.
Position N 36°24' E 014°36'.

Length 274 m; draft 14.2 m.

Type: Tanker. MMSI: 271000817.

Date/timePositionNaut miles runAvg speedWind from/ knotsBaromVisibWave heightAir tempDewpointWater temp
2016-May-29 04:33N 36°24' E 014°36'1313.5
2016-May-29 03:33N 36°28' E 014°20'1313.3
2016-May-29 02:33N 36°32' E 014°04'1313.4
2016-May-29 01:33N 36°37' E 013°49'1313.4
2016-May-29 00:33N 36°41' E 013°33'1313.0
2016-May-28 23:33N 36°44' E 013°17'1313.2
2016-May-28 22:33N 36°49' E 013°02'1413.5
2016-May-28 21:33N 36°54' E 012°46'1413.6
2016-May-28 20:33N 36°58' E 012°30'1613.8
2016-May-28 19:25N 37°04' E 012°11'1413.2
2016-May-28 18:20N 37°08' E 011°54'1113.3
2016-May-28 17:28N 37°12' E 011°41'1413.2
2016-May-28 16:27N 37°16' E 011°24'1213.6
2016-May-28 15:33N 37°21' E 011°11'1413.4
2016-May-28 14:33N 37°25' E 010°54'2913.1
2016-May-28 12:20N 37°32' E 010°19'6913.4
2016-May-28 07:09N 37°43' E 008°52'  
2016-May-26 02:20N 36°00' W 005°12'1316.0
2016-May-26 01:33N 35°57' W 005°27'60912.9
2016-May-24 02:28N 29°07' W 014°21'3712.7
2016-May-23 23:33N 28°34' W 014°41'1312.7
2016-May-23 22:33N 28°23' W 014°48'1312.6
2016-May-23 21:33N 28°11' W 014°53'1312.7
2016-May-23 20:33N 27°59' W 014°58'1212.5
2016-May-23 19:33N 27°48' W 015°03'1312.7
2016-May-23 18:33N 27°36' W 015°09'  
Track history (hours):
 
Tides and Currents Weather Stations Pressure Air Temp Water Temp Dewpoint Dewpoint Depression Visibility Wind Speed Wind Dir Waves Ship Positions

Besiktas Bosphorus

Last reported at 2016-May-29 04:33 UTC. Time now 2016-May-29 05:52 UTC.
Position N 36°24' E 014°36'.

Length 274 m; draft 14.2 m.

Type: Tanker. MMSI: 271000817.

Date/timePositionNaut miles runAvg speedWind from/ knotsBaromVisibWave heightAir tempDewpointWater temp
2016-May-29 04:33N 36°24' E 014°36'1313.5
2016-May-29 03:33N 36°28' E 014°20'1313.3
2016-May-29 02:33N 36°32' E 014°04'1313.4
2016-May-29 01:33N 36°37' E 013°49'1313.4
2016-May-29 00:33N 36°41' E 013°33'1313.0
2016-May-28 23:33N 36°44' E 013°17'1313.2
2016-May-28 22:33N 36°49' E 013°02'1413.5
2016-May-28 21:33N 36°54' E 012°46'1413.6
2016-May-28 20:33N 36°58' E 012°30'1613.8
2016-May-28 19:25N 37°04' E 012°11'1413.2
2016-May-28 18:20N 37°08' E 011°54'1113.3
2016-May-28 17:28N 37°12' E 011°41'1413.2
2016-May-28 16:27N 37°16' E 011°24'1213.6
2016-May-28 15:33N 37°21' E 011°11'1413.4
2016-May-28 14:33N 37°25' E 010°54'2913.1
2016-May-28 12:20N 37°32' E 010°19'6913.4
2016-May-28 07:09N 37°43' E 008°52'  
2016-May-26 02:20N 36°00' W 005°12'1316.0
2016-May-26 01:33N 35°57' W 005°27'60912.9
2016-May-24 02:28N 29°07' W 014°21'3712.7
2016-May-23 23:33N 28°34' W 014°41'1312.7
2016-May-23 22:33N 28°23' W 014°48'1312.6
2016-May-23 21:33N 28°11' W 014°53'1312.7
2016-May-23 20:33N 27°59' W 014°58'1212.5
2016-May-23 19:33N 27°48' W 015°03'1312.7
2016-May-23 18:33N 27°36' W 015°09'  

Dump ship's entire track history